Time;durP1;ratioP1;P1;durP2;ratioP2;P2;SDS_P1;SDS_P2;PMS_P1;PMS_P2;Temp;Humidity;BMP_temperature;BMP_pressure;BME280_temperature;BME280_humidity;BME280_pressure;Samples;Min_cycle;Max_cycle;Signal;HPM_P1;HPM_P2
2024/01/08 00:00:19;;;;;;;;;;;;;;;-3.28;88.07;102961.44;5047835;28;19921;-71
2024/01/08 00:02:45;;;;;;;;;;;;;;;-3.28;87.36;102966.56;5052791;28;19920;-73
2024/01/08 00:05:10;;;;;;;;;;;;;;;-3.34;87.05;102974.69;5062384;28;20302;-74
2024/01/08 00:07:35;;;;;;;;;;;;;;;-3.44;88.17;102958.47;5055176;28;19924;-70
2024/01/08 00:10:01;;;;;;;;;;;;;;;-3.27;86.92;102965.81;5056832;28;19989;-71
2024/01/08 00:12:26;;;;;;;;;;;;;;;-3.34;86.58;102958.41;5052097;28;19924;-71
2024/01/08 00:14:51;;;;;;;;;;;;;;;-3.29;86.71;102951.97;5049693;28;20130;-71
2024/01/08 00:17:18;;;;;;;;;;;;;;;-3.34;86.30;102960.97;5068442;28;20359;-69
2024/01/08 00:19:43;;;;;;;;;;;;;;;-3.35;86.37;102960.09;5056049;28;19928;-71
2024/01/08 00:22:08;;;;;;;;;;;;;;;-3.37;87.20;102955.59;5068570;28;19922;-73
2024/01/08 00:24:33;;;;;;;;;;;;;;;-3.27;87.41;102960.69;5045396;28;19920;-74
2024/01/08 00:26:59;;;;;;;;;;;;;;;-3.40;86.67;102958.81;5051066;28;19927;-73
2024/01/08 00:29:24;;;;;;;;;;;;;;;-3.38;87.08;102956.38;5073013;28;20374;-73
2024/01/08 00:31:49;;;;;;;;;;;;;;;-3.33;87.05;102961.09;5056471;28;19920;-72
2024/01/08 00:34:14;;;;;;;;;;;;;;;-3.38;86.36;102966.63;5056288;28;20303;-74
2024/01/08 00:36:41;;;;;;;;;;;;;;;-3.41;86.65;102969.84;5041912;28;19925;-74
2024/01/08 00:39:09;;;;;;;;;;;;;;;-3.37;86.17;102973.56;5062302;28;19973;-74
2024/01/08 00:41:34;;;;;;;;;;;;;;;-3.36;86.79;102954.81;5052593;28;19920;-73
2024/01/08 00:43:59;;;;;;;;;;;;;;;-3.46;87.27;102970.25;5071001;28;19935;-72
2024/01/08 00:46:25;;;;;;;;;;;;;;;-3.42;87.39;102962.03;5051131;28;20014;-72
2024/01/08 00:48:50;;;;;;;;;;;;;;;-3.38;87.29;102959.81;5043439;28;20348;-74
2024/01/08 00:51:15;;;;;;;;;;;;;;;-3.33;86.33;102955.97;5067164;28;20433;-74
2024/01/08 00:53:41;;;;;;;;;;;;;;;-3.34;86.92;102959.28;5055835;28;19966;-76
2024/01/08 00:56:07;;;;;;;;;;;;;;;-3.34;87.04;102963.53;5045978;28;19932;-73
2024/01/08 00:58:32;;;;;;;;;;;;;;;-3.28;86.41;102958.00;5047832;28;20214;-73
2024/01/08 01:00:58;;;;;;;;;;;;;;;-3.17;85.25;102965.75;5061401;28;19950;-72
2024/01/08 01:03:23;;;;;;;;;;;;;;;-3.33;85.45;102952.53;5080522;28;19923;-72
2024/01/08 01:05:49;;;;;;;;;;;;;;;-3.38;85.52;102966.63;5049675;28;20030;-73
2024/01/08 01:08:14;;;;;;;;;;;;;;;-3.41;86.05;102966.41;5070114;28;19922;-71
2024/01/08 01:10:42;;;;;;;;;;;;;;;-3.40;85.85;102957.94;5071923;28;20026;-71
2024/01/08 01:13:08;;;;;;;;;;;;;;;-3.45;86.40;102970.38;5055327;28;20390;-71
2024/01/08 01:15:33;;;;;;;;;;;;;;;-3.49;86.78;102970.91;5058605;28;19920;-70
2024/01/08 01:18:00;;;;;;;;;;;;;;;-3.52;86.70;102969.00;5082562;28;19923;-71
2024/01/08 01:20:28;;;;;;;;;;;;;;;-3.53;87.05;102968.88;5059733;28;19928;-71
2024/01/08 01:22:53;;;;;;;;;;;;;;;-3.56;87.02;102972.09;5060196;28;19943;-71
2024/01/08 01:25:19;;;;;;;;;;;;;;;-3.53;87.09;102974.00;5076470;28;19920;-71
2024/01/08 01:27:44;;;;;;;;;;;;;;;-3.56;87.47;102971.16;5058517;28;20917;-70
2024/01/08 01:30:09;;;;;;;;;;;;;;;-3.63;87.49;102969.81;5058168;28;20014;-71
2024/01/08 01:32:35;;;;;;;;;;;;;;;-3.72;87.97;102958.78;5074664;28;19951;-71
2024/01/08 01:35:00;;;;;;;;;;;;;;;-3.70;88.14;102962.41;5040098;28;19927;-70
2024/01/08 01:37:25;;;;;;;;;;;;;;;-3.77;88.43;102966.13;5040860;28;19975;-71
2024/01/08 01:39:51;;;;;;;;;;;;;;;-3.73;88.48;102962.16;5070523;28;20397;-73
2024/01/08 01:42:16;;;;;;;;;;;;;;;-3.81;88.55;102969.19;5075443;28;19916;-72
2024/01/08 01:44:42;;;;;;;;;;;;;;;-3.82;88.62;102975.13;5048169;28;20383;-73
2024/01/08 01:47:07;;;;;;;;;;;;;;;-3.79;89.05;102974.44;5040076;28;19920;-72
2024/01/08 01:49:33;;;;;;;;;;;;;;;-3.78;88.78;102968.56;5055459;28;19917;-72
2024/01/08 01:52:00;;;;;;;;;;;;;;;-3.77;88.85;102978.94;5054601;28;20075;-73
2024/01/08 01:54:26;;;;;;;;;;;;;;;-3.69;88.13;102974.44;5039589;28;20482;-72
2024/01/08 01:56:59;;;;;;;;;;;;;;;-3.59;87.64;102987.22;5060240;28;19970;-73
2024/01/08 01:59:26;;;;;;;;;;;;;;;-3.65;87.40;102976.47;5079727;28;19919;-72
2024/01/08 02:01:52;;;;;;;;;;;;;;;-3.66;87.53;102980.69;5071890;28;19916;-72
2024/01/08 02:04:17;;;;;;;;;;;;;;;-3.67;87.65;102978.00;5045966;28;20337;-72
2024/01/08 02:06:48;;;;;;;;;;;;;;;-3.72;87.83;102976.72;5041985;28;19927;-73
2024/01/08 02:09:16;;;;;;;;;;;;;;;-3.70;87.67;102980.34;5059761;28;20225;-72
2024/01/08 02:11:44;;;;;;;;;;;;;;;-3.75;87.82;102985.09;5051444;28;20007;-72
2024/01/08 02:14:10;;;;;;;;;;;;;;;-3.90;88.20;102978.72;5048025;28;20015;-72
2024/01/08 02:16:35;;;;;;;;;;;;;;;-4.00;88.67;102977.06;5055800;28;19999;-72
2024/01/08 02:19:01;;;;;;;;;;;;;;;-4.10;89.07;102982.19;5059645;28;19916;-72
2024/01/08 02:21:27;;;;;;;;;;;;;;;-4.03;89.01;102981.94;5096013;28;20068;-72
2024/01/08 02:23:52;;;;;;;;;;;;;;;-4.15;89.44;102975.78;5070603;28;19916;-73
2024/01/08 02:26:18;;;;;;;;;;;;;;;-4.27;89.75;102991.03;5074256;28;20265;-73
2024/01/08 02:28:43;;;;;;;;;;;;;;;-4.24;89.49;102981.06;5057265;28;19924;-73
2024/01/08 02:31:09;;;;;;;;;;;;;;;-4.31;90.31;102984.78;5053700;28;19920;-72
2024/01/08 02:33:34;;;;;;;;;;;;;;;-4.40;91.14;102989.13;5045421;28;19931;-73
2024/01/08 02:35:59;;;;;;;;;;;;;;;-4.32;90.76;102988.09;5058606;28;19935;-72
2024/01/08 02:38:25;;;;;;;;;;;;;;;-4.38;90.64;102997.84;5058488;28;19928;-73
2024/01/08 02:40:50;;;;;;;;;;;;;;;-4.46;90.98;102988.63;5057285;28;19978;-73
2024/01/08 02:43:15;;;;;;;;;;;;;;;-4.43;90.97;102994.00;5042862;28;20291;-72
2024/01/08 02:45:41;;;;;;;;;;;;;;;-4.45;90.92;102995.50;5045425;28;20383;-73
2024/01/08 02:48:06;;;;;;;;;;;;;;;-4.39;91.11;102991.81;5058289;28;19927;-73
2024/01/08 02:50:32;;;;;;;;;;;;;;;-4.45;90.81;103000.63;5057927;28;19924;-73
2024/01/08 02:52:57;;;;;;;;;;;;;;;-4.53;91.34;102995.75;5058575;28;20494;-73
2024/01/08 02:55:22;;;;;;;;;;;;;;;-4.60;91.68;102990.88;5057877;28;20380;-73
2024/01/08 02:57:48;;;;;;;;;;;;;;;-4.60;91.78;103003.69;5057536;28;19924;-73
2024/01/08 03:00:13;;;;;;;;;;;;;;;-4.65;91.64;103001.53;5075102;28;19916;-73
2024/01/08 03:02:39;;;;;;;;;;;;;;;-4.63;92.17;103003.44;5058197;28;19942;-73
2024/01/08 03:05:04;;;;;;;;;;;;;;;-4.65;92.31;103010.09;5063963;28;20015;-74
2024/01/08 03:07:30;;;;;;;;;;;;;;;-4.63;91.91;102997.44;5075347;28;20389;-73
2024/01/08 03:09:57;;;;;;;;;;;;;;;-4.60;92.51;103003.69;5061936;28;19935;-74
2024/01/08 03:12:22;;;;;;;;;;;;;;;-4.54;92.14;103004.22;5057368;28;19920;-74
2024/01/08 03:14:48;;;;;;;;;;;;;;;-4.48;91.95;102995.25;5069453;28;20386;-73
2024/01/08 03:17:13;;;;;;;;;;;;;;;-4.44;91.40;102997.31;5057565;28;19928;-73
2024/01/08 03:19:38;;;;;;;;;;;;;;;-4.43;91.57;103000.00;5063465;28;19973;-74
2024/01/08 03:22:05;;;;;;;;;;;;;;;-4.41;92.05;102993.34;5066853;28;19920;-73
2024/01/08 03:24:30;;;;;;;;;;;;;;;-4.29;91.63;103001.16;5074204;28;20426;-74
2024/01/08 03:26:56;;;;;;;;;;;;;;;-4.29;91.02;103008.84;5073806;28;19920;-73
2024/01/08 03:29:23;;;;;;;;;;;;;;;-4.29;91.30;103013.06;5057684;28;20380;-74
2024/01/08 03:31:49;;;;;;;;;;;;;;;-4.15;90.46;103009.09;5074118;28;20345;-73
2024/01/08 03:34:14;;;;;;;;;;;;;;;-4.27;91.29;103009.84;5074556;28;19920;-74
2024/01/08 03:36:46;;;;;;;;;;;;;;;-4.23;91.13;103008.47;5057322;28;19924;-74
2024/01/08 03:39:13;;;;;;;;;;;;;;;-4.22;91.57;103000.00;5057085;28;21276;-73
2024/01/08 03:41:39;;;;;;;;;;;;;;;-4.20;91.15;103004.47;5057067;28;19926;-73
2024/01/08 03:44:05;;;;;;;;;;;;;;;-4.15;91.17;103010.00;5057781;28;19967;-73
2024/01/08 03:46:30;;;;;;;;;;;;;;;-4.17;91.56;103014.06;5053587;28;19974;-73
2024/01/08 03:48:56;;;;;;;;;;;;;;;-4.08;91.19;103008.81;5041629;28;19986;-74
2024/01/08 03:51:21;;;;;;;;;;;;;;;-4.06;90.83;103013.31;5056823;28;20460;-73
2024/01/08 03:53:46;;;;;;;;;;;;;;;-4.04;91.11;102998.97;5057638;28;20412;-74
2024/01/08 03:56:11;;;;;;;;;;;;;;;-4.06;91.29;103002.19;5056511;28;19969;-73
2024/01/08 03:58:37;;;;;;;;;;;;;;;-3.99;91.14;103001.91;5053959;28;19959;-74
2024/01/08 04:01:03;;;;;;;;;;;;;;;-3.94;90.69;103003.16;5056588;28;19924;-73
2024/01/08 04:03:29;;;;;;;;;;;;;;;-3.95;91.26;103001.41;5074522;28;19912;-74
2024/01/08 04:05:54;;;;;;;;;;;;;;;-3.96;91.02;103002.16;5056769;28;19935;-73
2024/01/08 04:08:20;;;;;;;;;;;;;;;-3.96;90.64;103008.97;5057871;28;20303;-74
2024/01/08 04:10:45;;;;;;;;;;;;;;;-3.99;91.20;102999.34;5056376;28;20421;-73
2024/01/08 04:13:11;;;;;;;;;;;;;;;-3.94;91.27;103003.16;5074290;28;19912;-74
2024/01/08 04:15:36;;;;;;;;;;;;;;;-3.93;91.33;103004.09;5057371;28;19923;-74
2024/01/08 04:18:01;;;;;;;;;;;;;;;-3.90;91.42;102996.66;5053860;28;19924;-74
2024/01/08 04:20:27;;;;;;;;;;;;;;;-3.92;91.44;102996.53;5053762;28;20345;-73
2024/01/08 04:22:52;;;;;;;;;;;;;;;-3.83;90.64;102994.69;5054276;28;19992;-74
2024/01/08 04:25:17;;;;;;;;;;;;;;;-3.84;91.00;102995.47;5051364;28;19921;-73
2024/01/08 04:27:43;;;;;;;;;;;;;;;-3.84;90.54;103000.59;5036678;28;19983;-73
2024/01/08 04:57:51;;;;;;;;;;;;;;;-3.56;91.27;103013.09;5076743;28;19927;-71
2024/01/08 05:03:18;;;;;;;;;;;;;;;-3.52;90.78;103010.00;5076515;28;20315;-72
2024/01/08 05:05:44;;;;;;;;;;;;;;;-3.57;90.97;103003.59;5073742;28;19928;-71
2024/01/08 05:08:09;;;;;;;;;;;;;;;-3.49;91.40;103002.56;5056782;28;19916;-71
2024/01/08 05:10:34;;;;;;;;;;;;;;;-3.55;91.36;102998.59;5073265;28;19920;-71
2024/01/08 05:13:00;;;;;;;;;;;;;;;-3.55;91.95;103009.78;5071650;28;19966;-71
2024/01/08 05:15:25;;;;;;;;;;;;;;;-3.48;91.74;103000.88;5036688;28;19921;-70
2024/01/08 05:17:50;;;;;;;;;;;;;;;-3.43;91.72;103008.94;5072311;28;20387;-72
2024/01/08 05:20:16;;;;;;;;;;;;;;;-3.56;91.73;103005.41;5055965;28;19917;-71
2024/01/08 05:22:41;;;;;;;;;;;;;;;-3.61;92.26;103001.56;5056413;28;19947;-72
2024/01/08 05:25:08;;;;;;;;;;;;;;;-3.53;92.29;103005.66;5056082;28;19916;-71
2024/01/08 05:27:33;;;;;;;;;;;;;;;-3.62;92.58;103010.03;5055684;28;19924;-71
2024/01/08 05:29:58;;;;;;;;;;;;;;;-3.53;92.74;103000.53;5040490;28;19916;-71
2024/01/08 05:32:23;;;;;;;;;;;;;;;-3.60;92.60;102999.91;5052625;28;20368;-71
2024/01/08 05:34:49;;;;;;;;;;;;;;;-3.61;92.94;103009.25;5052862;28;19917;-71
2024/01/08 05:37:15;;;;;;;;;;;;;;;-3.58;92.87;102996.69;5054050;28;19956;-70
2024/01/08 05:39:40;;;;;;;;;;;;;;;-3.58;92.76;103000.91;5055400;28;20421;-71
2024/01/08 05:42:05;;;;;;;;;;;;;;;-3.63;93.16;102995.44;5070986;28;19993;-71
2024/01/08 05:44:31;;;;;;;;;;;;;;;-3.55;93.43;102994.38;5059243;28;20334;-71
2024/01/08 05:46:56;;;;;;;;;;;;;;;-3.62;93.57;102994.66;5089378;28;20343;-71
2024/01/08 05:49:21;;;;;;;;;;;;;;;-3.59;93.63;103000.03;5051343;28;19928;-70
2024/01/08 05:51:47;;;;;;;;;;;;;;;-3.53;93.65;103002.19;5049526;28;19920;-70
2024/01/08 05:54:12;;;;;;;;;;;;;;;-3.51;94.03;103003.19;5054636;28;19928;-72
2024/01/08 05:56:37;;;;;;;;;;;;;;;-3.54;94.09;103001.28;5054169;28;20371;-71
2024/01/08 05:59:03;;;;;;;;;;;;;;;-3.58;94.01;103004.38;5054044;28;20439;-71
2024/01/08 06:01:28;;;;;;;;;;;;;;;-3.56;94.11;103007.97;5044042;28;20027;-71
2024/01/08 06:03:54;;;;;;;;;;;;;;;-3.55;94.28;102988.34;5069160;28;19928;-71
2024/01/08 06:06:20;;;;;;;;;;;;;;;-3.53;94.20;102995.41;5037924;28;19925;-71
2024/01/08 06:08:46;;;;;;;;;;;;;;;-3.58;94.66;102989.00;5071658;28;20285;-71
2024/01/08 06:11:11;;;;;;;;;;;;;;;-3.49;94.14;102991.44;5070783;28;19920;-71
2024/01/08 06:13:36;;;;;;;;;;;;;;;-3.52;94.64;102988.59;5047985;28;19925;-71
2024/01/08 06:16:02;;;;;;;;;;;;;;;-3.52;94.83;102992.06;5051005;28;20022;-70
2024/01/08 06:18:29;;;;;;;;;;;;;;;-3.47;94.55;102994.09;5055484;28;19989;-71
2024/01/08 06:20:55;;;;;;;;;;;;;;;-3.50;94.75;102990.50;5054366;28;19925;-71
2024/01/08 06:23:20;;;;;;;;;;;;;;;-3.47;94.75;102994.09;5050117;28;19931;-71
2024/01/08 06:25:45;;;;;;;;;;;;;;;-3.43;94.55;103001.25;5047359;28;20009;-71
2024/01/08 06:28:11;;;;;;;;;;;;;;;-3.41;94.44;102992.91;5055018;28;19931;-71
2024/01/08 06:30:36;;;;;;;;;;;;;;;-3.26;93.95;103000.94;5052099;28;19917;-71
2024/01/08 06:33:02;;;;;;;;;;;;;;;-3.39;94.04;102993.03;5047190;28;20422;-71
2024/01/08 06:35:27;;;;;;;;;;;;;;;-3.37;94.10;102991.50;5071269;28;19920;-71
2024/01/08 06:37:52;;;;;;;;;;;;;;;-3.37;94.11;102999.19;5050205;28;19925;-74
2024/01/08 06:40:18;;;;;;;;;;;;;;;-3.25;93.64;102986.44;5056940;28;19975;-75
2024/01/08 06:42:43;;;;;;;;;;;;;;;-3.26;93.97;102989.78;5044619;28;19928;-74
2024/01/08 06:45:08;;;;;;;;;;;;;;;-3.29;94.07;102992.09;5054669;28;19959;-75
2024/01/08 06:47:34;;;;;;;;;;;;;;;-3.29;94.40;102992.09;5053480;28;19966;-74
2024/01/08 06:50:01;;;;;;;;;;;;;;;-3.32;94.46;102987.63;5071412;28;19928;-71
2024/01/08 06:52:27;;;;;;;;;;;;;;;-3.18;94.57;102987.03;5054254;28;19927;-72
2024/01/08 06:54:52;;;;;;;;;;;;;;;-3.26;94.76;102987.22;5054320;28;20375;-71
2024/01/08 06:57:18;;;;;;;;;;;;;;;-3.26;94.55;102992.34;5050472;28;20388;-71
2024/01/08 06:59:43;;;;;;;;;;;;;;;-3.29;94.60;102990.41;5069432;28;20269;-72
2024/01/08 07:02:08;;;;;;;;;;;;;;;-3.23;94.25;102993.50;5055054;28;19916;-73
2024/01/08 07:04:36;;;;;;;;;;;;;;;-3.15;94.48;103004.34;5054520;28;19973;-74
2024/01/08 07:07:01;;;;;;;;;;;;;;;-3.07;93.79;103004.97;5072429;28;19999;-73
2024/01/08 07:09:27;;;;;;;;;;;;;;;-3.20;94.38;103004.00;5071234;28;20007;-73
2024/01/08 07:11:52;;;;;;;;;;;;;;;-3.01;93.99;103015.69;5054130;28;19924;-74
2024/01/08 07:14:17;;;;;;;;;;;;;;;-3.02;93.79;103006.19;5057356;28;19917;-74
2024/01/08 07:16:43;;;;;;;;;;;;;;;-3.10;94.22;103007.25;5049994;28;19920;-73
2024/01/08 07:19:08;;;;;;;;;;;;;;;-3.10;94.40;103020.09;5054779;28;19927;-74
2024/01/08 07:21:33;;;;;;;;;;;;;;;-3.04;94.35;103023.16;5053894;28;19923;-73
2024/01/08 07:23:59;;;;;;;;;;;;;;;-3.02;94.17;103024.16;5071180;28;19920;-74
2024/01/08 07:26:24;;;;;;;;;;;;;;;-3.02;94.33;103025.03;5053258;28;19952;-74
2024/01/08 07:28:50;;;;;;;;;;;;;;;-2.99;94.39;103019.28;5071350;28;20045;-74
2024/01/08 07:31:15;;;;;;;;;;;;;;;-3.00;94.25;103015.81;5054239;28;19920;-73
2024/01/08 07:33:41;;;;;;;;;;;;;;;-2.76;92.64;103025.31;5071552;28;20073;-73
2024/01/08 07:36:07;;;;;;;;;;;;;;;-2.79;92.88;103026.88;5071003;28;19926;-74
2024/01/08 07:38:32;;;;;;;;;;;;;;;-2.78;92.69;103026.06;5070932;28;19920;-74
2024/01/08 07:40:59;;;;;;;;;;;;;;;-2.88;93.61;103027.81;5053327;28;19927;-73
2024/01/08 07:43:24;;;;;;;;;;;;;;;-3.00;93.99;103028.66;5071514;28;19942;-74
2024/01/08 07:45:50;;;;;;;;;;;;;;;-2.97;94.21;103028.00;5071086;28;19916;-72
2024/01/08 07:48:15;;;;;;;;;;;;;;;-2.99;93.96;103026.97;5054265;28;19924;-74
2024/01/08 07:50:40;;;;;;;;;;;;;;;-2.79;92.74;103034.56;5049909;28;20299;-73
2024/01/08 07:53:05;;;;;;;;;;;;;;;-2.82;92.66;103029.19;5033914;28;19917;-74
2024/01/08 07:55:31;;;;;;;;;;;;;;;-2.88;93.03;103035.53;5050164;28;20365;-74
2024/01/08 07:57:56;;;;;;;;;;;;;;;-2.81;92.95;103040.34;5033038;28;20308;-73
2024/01/08 08:00:24;;;;;;;;;;;;;;;-2.72;92.31;103046.19;5034049;28;19916;-74
2024/01/08 08:02:50;;;;;;;;;;;;;;;-2.80;92.33;103040.47;5046653;28;19991;-74
2024/01/08 08:05:16;;;;;;;;;;;;;;;-2.85;92.37;103046.91;5053693;28;20352;-74
2024/01/08 08:07:41;;;;;;;;;;;;;;;-2.91;92.63;103031.03;5053756;28;19927;-73
2024/01/08 08:10:07;;;;;;;;;;;;;;;-2.85;92.74;103041.78;5056539;28;20370;-74
2024/01/08 08:12:33;;;;;;;;;;;;;;;-2.79;92.14;103041.34;5073820;28;19923;-74
2024/01/08 08:14:59;;;;;;;;;;;;;;;-2.61;90.93;103037.66;5054552;28;19972;-74
2024/01/08 08:17:25;;;;;;;;;;;;;;;-2.80;91.92;103043.03;5054311;28;20049;-73
2024/01/08 08:19:50;;;;;;;;;;;;;;;-2.78;92.41;103038.03;5037863;28;20001;-73
2024/01/08 08:22:15;;;;;;;;;;;;;;;-2.58;91.31;103043.81;5037362;28;19970;-74
2024/01/08 08:24:41;;;;;;;;;;;;;;;-2.70;92.02;103043.75;5037603;28;19927;-73
2024/01/08 08:27:11;;;;;;;;;;;;;;;-2.78;92.35;103040.59;5061220;28;19912;-73
2024/01/08 08:29:42;;;;;;;;;;;;;;;-2.72;91.50;103042.75;5074092;28;19920;-73
2024/01/08 08:32:07;;;;;;;;;;;;;;;-2.81;92.91;103050.63;5073579;28;19962;-73
2024/01/08 08:34:33;;;;;;;;;;;;;;;-2.75;92.53;103043.38;5074299;28;20340;-73
2024/01/08 08:36:58;;;;;;;;;;;;;;;-2.72;92.42;103050.44;5057274;28;19971;-74
2024/01/08 08:39:23;;;;;;;;;;;;;;;-2.74;92.34;103052.88;5053966;28;19924;-74
2024/01/08 08:41:49;;;;;;;;;;;;;;;-2.73;92.91;103053.78;5073052;28;20360;-74
2024/01/08 08:44:14;;;;;;;;;;;;;;;-2.59;92.07;103065.13;5048421;28;20327;-74
2024/01/08 08:46:39;;;;;;;;;;;;;;;-2.75;92.19;103065.59;5053758;28;19968;-73
2024/01/08 08:49:06;;;;;;;;;;;;;;;-2.66;92.49;103061.19;5044158;28;19924;-73
2024/01/08 08:51:33;;;;;;;;;;;;;;;-2.64;92.76;103051.94;5052887;28;20373;-73
2024/01/08 08:54:01;;;;;;;;;;;;;;;-2.74;93.02;103058.03;5070957;28;19928;-73
2024/01/08 08:56:26;;;;;;;;;;;;;;;-2.63;93.10;103067.47;5037468;28;19921;-73
2024/01/08 08:58:51;;;;;;;;;;;;;;;-2.67;92.79;103065.44;5040292;28;19940;-73
2024/01/08 09:01:17;;;;;;;;;;;;;;;-2.55;92.66;103052.63;5036845;28;20314;-72
2024/01/08 09:03:43;;;;;;;;;;;;;;;-2.58;92.66;103059.22;5032424;28;20419;-74
2024/01/08 09:06:08;;;;;;;;;;;;;;;-2.62;93.04;103068.34;5055537;28;19923;-72
2024/01/08 09:08:33;;;;;;;;;;;;;;;-2.70;93.10;103065.19;5025667;28;20030;-73
2024/01/08 09:10:59;;;;;;;;;;;;;;;-2.49;92.05;103070.19;5045238;28;20439;-73
2024/01/08 09:13:24;;;;;;;;;;;;;;;-2.50;92.10;103074.44;5035322;28;20382;-73
2024/01/08 09:15:50;;;;;;;;;;;;;;;-2.54;92.89;103072.41;5029221;28;19928;-74
2024/01/08 09:18:18;;;;;;;;;;;;;;;-2.56;92.74;103076.50;5030451;28;19924;-73
2024/01/08 09:20:43;;;;;;;;;;;;;;;-2.62;93.19;103083.75;5055732;28;19916;-74
2024/01/08 09:23:08;;;;;;;;;;;;;;;-2.58;93.18;103075.50;5056712;28;19913;-73
2024/01/08 09:25:34;;;;;;;;;;;;;;;-2.58;93.86;103085.78;5039346;28;19981;-72
2024/01/08 09:27:59;;;;;;;;;;;;;;;-2.65;94.35;103086.06;5055621;28;20754;-74
2024/01/08 09:30:24;;;;;;;;;;;;;;;-2.75;95.09;103081.00;5039595;28;19931;-74
2024/01/08 09:32:50;;;;;;;;;;;;;;;-2.73;95.65;103089.69;5056022;28;19931;-74
2024/01/08 09:35:15;;;;;;;;;;;;;;;-2.73;96.23;103087.13;5033286;28;19932;-74
2024/01/08 09:37:40;;;;;;;;;;;;;;;-2.74;97.09;103093.94;5033680;28;19925;-71
2024/01/08 09:40:06;;;;;;;;;;;;;;;-2.57;97.04;103092.72;5036791;28;19947;-73
2024/01/08 09:42:32;;;;;;;;;;;;;;;-2.49;96.96;103098.44;5054936;28;19920;-75
2024/01/08 09:45:01;;;;;;;;;;;;;;;-2.38;96.59;103089.00;5056282;28;20375;-72
2024/01/08 09:47:28;;;;;;;;;;;;;;;-2.18;95.53;103099.13;5055662;28;20276;-74
2024/01/08 09:49:53;;;;;;;;;;;;;;;-2.12;95.77;103098.72;5055886;28;19912;-74
2024/01/08 09:52:19;;;;;;;;;;;;;;;-2.05;93.53;103106.09;5055112;28;19951;-77
2024/01/08 09:54:44;;;;;;;;;;;;;;;-2.18;95.03;103100.81;5061130;28;20377;-74
2024/01/08 09:57:10;;;;;;;;;;;;;;;-2.19;93.86;103106.72;5051596;28;20300;-73
2024/01/08 09:59:35;;;;;;;;;;;;;;;-2.11;94.02;103100.50;5064981;28;20407;-73
2024/01/08 10:02:01;;;;;;;;;;;;;;;-2.07;93.29;103096.47;5070617;28;20223;-74
2024/01/08 10:04:26;;;;;;;;;;;;;;;-2.15;93.50;103104.50;5071546;28;19912;-75
2024/01/08 10:07:12;;;;;;;;;;;;;;;-2.29;93.91;103097.41;5050911;28;19921;-74
2024/01/08 10:09:37;;;;;;;;;;;;;;;-2.22;94.27;103099.66;5065134;28;19916;-73
2024/01/08 10:12:04;;;;;;;;;;;;;;;-2.16;92.64;103101.81;5070804;28;20360;-75
2024/01/08 10:14:30;;;;;;;;;;;;;;;-2.13;93.13;103094.34;5072097;28;19919;-73
2024/01/08 10:16:55;;;;;;;;;;;;;;;-1.84;92.56;103091.44;5071483;28;19920;-74
2024/01/08 10:19:23;;;;;;;;;;;;;;;-0.74;88.82;103089.06;5055205;28;19963;-73
2024/01/08 10:22:07;;;;;;;;;;;;;;;0.32;85.60;103082.53;5054893;28;19966;-75
2024/01/08 10:24:33;;;;;;;;;;;;;;;0.10;84.48;103082.75;5056553;28;19912;-75
2024/01/08 10:26:58;;;;;;;;;;;;;;;-0.51;86.30;103082.94;5070920;28;19923;-75
2024/01/08 10:29:24;;;;;;;;;;;;;;;-0.89;89.20;103082.03;5074745;28;20269;-73
2024/01/08 10:31:49;;;;;;;;;;;;;;;-1.25;90.10;103081.19;5070752;28;19929;-73
2024/01/08 10:34:15;;;;;;;;;;;;;;;-0.24;87.66;103075.34;5071394;28;20020;-74
2024/01/08 10:36:43;;;;;;;;;;;;;;;1.37;81.31;103090.09;5053579;28;20372;-74
2024/01/08 10:39:09;;;;;;;;;;;;;;;1.78;77.17;103069.28;5071093;28;19916;-74
2024/01/08 10:41:35;;;;;;;;;;;;;;;1.56;77.19;103080.91;5048696;28;19924;-73
2024/01/08 10:44:00;;;;;;;;;;;;;;;1.21;77.47;103074.47;5071712;28;19942;-73
2024/01/08 10:46:28;;;;;;;;;;;;;;;0.84;79.20;103078.16;5054930;28;20369;-73
2024/01/08 10:48:55;;;;;;;;;;;;;;;0.37;81.04;103072.50;5071852;28;20284;-74
2024/01/08 10:51:21;;;;;;;;;;;;;;;-0.06;81.00;103061.13;5071155;28;19955;-74
2024/01/08 10:53:47;;;;;;;;;;;;;;;-0.35;82.09;103060.00;5051257;28;19952;-74
2024/01/08 10:56:14;;;;;;;;;;;;;;;-0.63;82.05;103058.91;5052505;28;19961;-74
2024/01/08 10:58:43;;;;;;;;;;;;;;;-0.88;82.36;103057.19;5055274;28;19920;-75
2024/01/08 11:01:11;;;;;;;;;;;;;;;-0.82;82.08;103062.78;5054657;28;19939;-76
2024/01/08 11:03:37;;;;;;;;;;;;;;;-0.93;81.39;103063.69;5038915;28;20003;-77
2024/01/08 11:06:03;;;;;;;;;;;;;;;-0.80;79.16;103060.31;5036695;28;20482;-77
2024/01/08 11:08:31;;;;;;;;;;;;;;;-0.63;77.20;103062.38;5035249;28;19956;-77
2024/01/08 11:10:58;;;;;;;;;;;;;;;-0.32;76.01;103050.72;5028079;28;19920;-78
2024/01/08 11:13:25;;;;;;;;;;;;;;;0.67;74.36;103051.28;5054868;28;19912;-72
2024/01/08 11:15:50;;;;;;;;;;;;;;;0.78;73.14;103067.47;5054565;28;19912;-74
2024/01/08 11:18:24;;;;;;;;;;;;;;;0.49;75.50;103060.44;5036575;28;19974;-74
2024/01/08 11:20:50;;;;;;;;;;;;;;;0.00;72.32;103042.63;5033638;28;19940;-72
2024/01/08 11:23:34;;;;;;;;;;;;;;;-0.31;73.88;103042.22;5037459;28;22123;-73
2024/01/08 11:26:11;;;;;;;;;;;;;;;-0.49;75.06;103047.88;5052567;28;19924;-72
2024/01/08 11:28:37;;;;;;;;;;;;;;;-0.80;74.94;103050.91;5054010;28;19952;-76
2024/01/08 11:31:14;;;;;;;;;;;;;;;-0.76;74.08;103052.91;5053568;28;19916;-75
2024/01/08 11:33:48;;;;;;;;;;;;;;;-1.13;75.71;103045.16;5053980;28;19912;-73
2024/01/08 11:36:17;;;;;;;;;;;;;;;-1.08;77.44;103042.91;5052767;28;19952;-75
2024/01/08 11:38:50;;;;;;;;;;;;;;;-0.92;76.79;103044.88;5053360;28;20395;-75
2024/01/08 11:41:16;;;;;;;;;;;;;;;-0.45;76.99;103039.56;5052464;28;19920;-81
2024/01/08 11:43:42;;;;;;;;;;;;;;;0.76;74.14;103032.03;5030822;28;20058;-74
2024/01/08 11:46:09;;;;;;;;;;;;;;;2.27;69.48;103019.56;5051320;28;20019;-73
2024/01/08 11:48:34;;;;;;;;;;;;;;;3.20;65.76;103026.44;5037317;28;19978;-75
2024/01/08 11:51:00;;;;;;;;;;;;;;;3.17;63.17;103012.44;5033457;28;20248;-74
2024/01/08 11:53:25;;;;;;;;;;;;;;;2.56;65.65;103026.41;5029560;28;19927;-75
2024/01/08 11:55:52;;;;;;;;;;;;;;;1.92;66.20;103013.22;5042677;28;20281;-76
2024/01/08 11:58:17;;;;;;;;;;;;;;;1.09;69.54;103032.34;5052864;28;19967;-76
2024/01/08 12:00:42;;;;;;;;;;;;;;;0.70;69.42;103027.34;5050153;28;19964;-79
2024/01/08 12:03:09;;;;;;;;;;;;;;;0.14;70.32;103028.03;5052031;28;19916;-76
2024/01/08 12:05:35;;;;;;;;;;;;;;;-0.24;73.01;103021.22;5069830;28;19921;-78
2024/01/08 12:08:01;;;;;;;;;;;;;;;-0.06;72.11;103030.19;5062462;28;19923;-79
2024/01/08 12:10:26;;;;;;;;;;;;;;;-0.08;72.17;103018.88;5053160;28;20283;-76
2024/01/08 12:12:54;;;;;;;;;;;;;;;0.30;70.02;103019.63;5050728;28;20344;-74
2024/01/08 12:15:19;;;;;;;;;;;;;;;0.47;69.08;103015.56;5076891;28;19923;-76
2024/01/08 12:17:44;;;;;;;;;;;;;;;0.23;68.96;103020.94;5047837;28;19921;-76
2024/01/08 12:20:11;;;;;;;;;;;;;;;-0.02;67.73;103010.66;5048397;28;19928;-79
2024/01/08 12:22:36;;;;;;;;;;;;;;;-0.22;67.58;103017.06;5050048;28;19925;-76
2024/01/08 12:25:05;;;;;;;;;;;;;;;-0.46;66.22;103012.03;5058781;28;20011;-79
2024/01/08 12:27:31;;;;;;;;;;;;;;;-0.41;64.26;103017.50;5067680;28;19917;-78
2024/01/08 12:29:57;;;;;;;;;;;;;;;-0.54;65.91;103008.03;5061516;28;19920;-76
2024/01/08 12:32:25;;;;;;;;;;;;;;;-0.07;64.10;103006.88;5053308;28;19924;-74
2024/01/08 12:34:51;;;;;;;;;;;;;;;0.26;62.39;103010.81;5070148;28;19916;-74
2024/01/08 12:37:17;;;;;;;;;;;;;;;0.17;60.64;103005.03;5069607;28;19926;-75
2024/01/08 12:39:43;;;;;;;;;;;;;;;0.04;59.30;103023.06;5069964;28;19912;-76
2024/01/08 12:42:09;;;;;;;;;;;;;;;-0.18;61.61;103008.75;5069569;28;20015;-77
2024/01/08 12:44:36;;;;;;;;;;;;;;;0.36;58.02;103006.22;5070396;28;19912;-76
2024/01/08 12:47:04;;;;;;;;;;;;;;;0.81;56.22;103010.88;5050282;28;20020;-79
2024/01/08 12:49:30;;;;;;;;;;;;;;;1.09;56.66;103011.69;5048597;28;19939;-77
2024/01/08 12:52:00;;;;;;;;;;;;;;;1.38;54.01;103001.47;5069681;28;20292;-75
2024/01/08 12:54:29;;;;;;;;;;;;;;;2.04;53.21;103001.91;5053998;28;19928;-77
2024/01/08 12:56:55;;;;;;;;;;;;;;;2.40;50.44;103003.94;5072111;28;20386;-78
2024/01/08 12:59:25;;;;;;;;;;;;;;;2.58;49.23;102993.72;5073543;28;20015;-73
2024/01/08 13:01:51;;;;;;;;;;;;;;;2.63;49.07;102999.13;5073499;28;20364;-78